EZY901P EGPH-EGCC
Flight info
| Callsign | EZY901P |
|---|---|
| Flight time | 0h 53m |
| Altitude | 25000 |
| Route | GOSAM P600 FENIK L612 LAKEY |
| Aircraft | A20N/M-SDE2E3FGHIRWXY/LB1 |
Departure
| Time | 2026-04-23 16:02 |
|---|---|
| Airport | Edinburgh Airport (EGPH) |
Arrival
| Time | 2026-04-23 16:55 |
|---|---|
| Airport | Manchester Airport (EGCC) |
| Time | Latitude | Longitude | Altitude | Speed | Heading |
|---|---|---|---|---|---|
| 2026-04-23 15:45 | 55.94810 | -3.35750 | 116 ft | 0 kts | 208° |
| 2026-04-23 15:55 | 55.94810 | -3.35749 | 116 ft | 0 kts | 208° |
| 2026-04-23 15:55 | 55.94829 | -3.35731 | 116 ft | 4 kts | 208° |
| 2026-04-23 15:56 | 55.94853 | -3.35708 | 113 ft | 4 kts | 216° |
| 2026-04-23 15:56 | 55.94868 | -3.35675 | 112 ft | 4 kts | 266° |
| 2026-04-23 15:56 | 55.94864 | -3.35636 | 113 ft | 1 kts | 298° |
| 2026-04-23 15:56 | 55.94864 | -3.35635 | 116 ft | 0 kts | 298° |
| 2026-04-23 15:58 | 55.94911 | -3.35790 | 112 ft | 21 kts | 299° |
| 2026-04-23 15:58 | 55.95035 | -3.35842 | 116 ft | 18 kts | 348° |
| 2026-04-23 15:59 | 55.95104 | -3.36052 | 115 ft | 23 kts | 291° |
| 2026-04-23 15:59 | 55.95115 | -3.36346 | 113 ft | 26 kts | 244° |
| 2026-04-23 15:59 | 55.95010 | -3.36651 | 113 ft | 32 kts | 238° |
| 2026-04-23 15:59 | 55.94915 | -3.36928 | 112 ft | 22 kts | 240° |
| 2026-04-23 16:00 | 55.94860 | -3.37092 | 115 ft | 14 kts | 238° |
| 2026-04-23 16:00 | 55.94806 | -3.37249 | 112 ft | 15 kts | 238° |
| 2026-04-23 16:00 | 55.94746 | -3.37429 | 112 ft | 18 kts | 239° |
| 2026-04-23 16:00 | 55.94684 | -3.37612 | 114 ft | 18 kts | 238° |
| 2026-04-23 16:01 | 55.94609 | -3.37833 | 112 ft | 22 kts | 240° |
| 2026-04-23 16:01 | 55.94641 | -3.38006 | 112 ft | 18 kts | 330° |
| 2026-04-23 16:01 | 55.94748 | -3.37992 | 115 ft | 19 kts | 56° |
| 2026-04-23 16:01 | 55.95000 | -3.37248 | 113 ft | 127 kts | 59° |
| 2026-04-23 16:02 | 55.95534 | -3.35726 | 951 ft | 152 kts | 58° |
| 2026-04-23 16:02 | 55.96151 | -3.34040 | 2126 ft | 172 kts | 52° |
| 2026-04-23 16:02 | 55.97134 | -3.32564 | 2863 ft | 207 kts | 37° |
| 2026-04-23 16:02 | 55.98430 | -3.30921 | 3550 ft | 243 kts | 40° |
| 2026-04-23 16:03 | 55.99664 | -3.28934 | 4663 ft | 234 kts | 44° |
| 2026-04-23 16:03 | 56.01083 | -3.27482 | 5337 ft | 240 kts | 15° |
| 2026-04-23 16:03 | 56.02750 | -3.27427 | 5704 ft | 244 kts | 345° |
| 2026-04-23 16:03 | 56.04208 | -3.28814 | 5904 ft | 241 kts | 315° |
| 2026-04-23 16:04 | 56.05080 | -3.31301 | 5993 ft | 237 kts | 284° |
| 2026-04-23 16:04 | 56.05117 | -3.34188 | 5999 ft | 233 kts | 253° |
| 2026-04-23 16:04 | 56.04343 | -3.36715 | 6004 ft | 233 kts | 231° |
| 2026-04-23 16:04 | 56.03330 | -3.39012 | 6178 ft | 238 kts | 233° |
| 2026-04-23 16:05 | 56.02730 | -3.40671 | 6691 ft | 239 kts | 239° |
| 2026-04-23 16:05 | 56.01800 | -3.44237 | 8116 ft | 238 kts | 248° |
| 2026-04-23 16:05 | 56.01262 | -3.47115 | 8809 ft | 254 kts | 252° |
| 2026-04-23 16:05 | 56.00781 | -3.50291 | 9203 ft | 274 kts | 255° |
| 2026-04-23 16:06 | 56.00314 | -3.53660 | 9807 ft | 281 kts | 255° |
| 2026-04-23 16:06 | 55.99849 | -3.57059 | 10528 ft | 284 kts | 255° |
| 2026-04-23 16:06 | 55.99353 | -3.60632 | 11252 ft | 308 kts | 255° |
| 2026-04-23 16:06 | 55.98814 | -3.64446 | 12007 ft | 331 kts | 255° |
| 2026-04-23 16:07 | 55.98121 | -3.68424 | 13076 ft | 339 kts | 243° |
| 2026-04-23 16:07 | 55.96726 | -3.71824 | 14204 ft | 344 kts | 222° |
| 2026-04-23 16:07 | 55.94696 | -3.74139 | 15292 ft | 351 kts | 202° |
| 2026-04-23 16:07 | 55.92330 | -3.75047 | 16335 ft | 357 kts | 182° |
| 2026-04-23 16:08 | 55.89822 | -3.74730 | 17347 ft | 364 kts | 172° |
| 2026-04-23 16:08 | 55.87305 | -3.73973 | 18312 ft | 370 kts | 170° |
| 2026-04-23 16:08 | 55.84738 | -3.73219 | 19267 ft | 376 kts | 171° |
| 2026-04-23 16:08 | 55.82122 | -3.72581 | 20142 ft | 382 kts | 173° |
| 2026-04-23 16:09 | 55.79449 | -3.72042 | 21032 ft | 388 kts | 174° |
| 2026-04-23 16:09 | 55.76734 | -3.71557 | 21866 ft | 395 kts | 175° |
| 2026-04-23 16:09 | 55.73979 | -3.71095 | 22685 ft | 400 kts | 175° |
| 2026-04-23 16:09 | 55.71220 | -3.70641 | 23453 ft | 406 kts | 175° |
| 2026-04-23 16:10 | 55.68379 | -3.70172 | 24216 ft | 412 kts | 175° |
| 2026-04-23 16:10 | 55.65499 | -3.69696 | 24933 ft | 418 kts | 175° |
| 2026-04-23 16:10 | 55.62598 | -3.69215 | 25297 ft | 420 kts | 175° |
| 2026-04-23 16:10 | 55.59684 | -3.68731 | 25433 ft | 421 kts | 175° |
| 2026-04-23 16:11 | 55.56769 | -3.68248 | 25458 ft | 421 kts | 175° |
| 2026-04-23 16:11 | 55.53841 | -3.67764 | 25458 ft | 421 kts | 175° |
| 2026-04-23 16:11 | 55.50905 | -3.67279 | 25459 ft | 421 kts | 175° |
| 2026-04-23 16:11 | 55.47987 | -3.66798 | 25458 ft | 421 kts | 175° |
| 2026-04-23 16:12 | 55.45066 | -3.66318 | 25466 ft | 422 kts | 175° |
| 2026-04-23 16:12 | 55.42185 | -3.65843 | 25467 ft | 422 kts | 175° |
| 2026-04-23 16:12 | 55.39266 | -3.65363 | 25467 ft | 422 kts | 175° |
| 2026-04-23 16:12 | 55.36341 | -3.64883 | 25465 ft | 422 kts | 175° |
| 2026-04-23 16:13 | 55.33409 | -3.64403 | 25458 ft | 422 kts | 175° |
| 2026-04-23 16:13 | 55.27558 | -3.63446 | 25449 ft | 422 kts | 175° |
| 2026-04-23 16:13 | 55.24635 | -3.62968 | 25449 ft | 422 kts | 175° |
| 2026-04-23 16:14 | 55.22701 | -3.62652 | 25450 ft | 422 kts | 175° |
| 2026-04-23 16:14 | 55.19766 | -3.62173 | 25450 ft | 423 kts | 175° |
| 2026-04-23 16:14 | 55.16835 | -3.61697 | 25449 ft | 423 kts | 175° |
| 2026-04-23 16:14 | 55.13901 | -3.61222 | 25449 ft | 423 kts | 175° |
| 2026-04-23 16:15 | 55.10971 | -3.60746 | 25450 ft | 423 kts | 175° |
| 2026-04-23 16:15 | 55.08032 | -3.60269 | 25449 ft | 423 kts | 175° |
| 2026-04-23 16:15 | 55.05094 | -3.59794 | 25449 ft | 423 kts | 175° |
| 2026-04-23 16:15 | 55.02158 | -3.59311 | 25448 ft | 423 kts | 173° |
| 2026-04-23 16:16 | 54.99259 | -3.58374 | 25440 ft | 423 kts | 165° |
| 2026-04-23 16:16 | 54.96479 | -3.56721 | 25440 ft | 423 kts | 156° |
| 2026-04-23 16:16 | 54.93885 | -3.54450 | 25440 ft | 423 kts | 151° |
| 2026-04-23 16:16 | 54.91296 | -3.51981 | 25441 ft | 423 kts | 151° |
| 2026-04-23 16:17 | 54.88717 | -3.49534 | 25440 ft | 423 kts | 151° |
| 2026-04-23 16:17 | 54.86125 | -3.47090 | 25440 ft | 424 kts | 151° |
| 2026-04-23 16:17 | 54.83522 | -3.44646 | 25439 ft | 424 kts | 151° |
| 2026-04-23 16:17 | 54.80928 | -3.42217 | 25441 ft | 424 kts | 151° |
| 2026-04-23 16:18 | 54.78328 | -3.39788 | 25440 ft | 424 kts | 151° |
| 2026-04-23 16:18 | 54.75758 | -3.37389 | 25440 ft | 424 kts | 151° |
| 2026-04-23 16:18 | 54.73165 | -3.34974 | 25440 ft | 424 kts | 151° |
| 2026-04-23 16:18 | 54.70502 | -3.32774 | 25445 ft | 424 kts | 156° |
| 2026-04-23 16:19 | 54.67799 | -3.30752 | 25449 ft | 424 kts | 156° |
| 2026-04-23 16:19 | 54.65085 | -3.28719 | 25449 ft | 424 kts | 156° |
| 2026-04-23 16:19 | 54.62375 | -3.26688 | 25448 ft | 424 kts | 156° |
| 2026-04-23 16:19 | 54.59693 | -3.24679 | 25449 ft | 425 kts | 156° |
| 2026-04-23 16:20 | 54.56949 | -3.22626 | 25449 ft | 423 kts | 156° |
| 2026-04-23 16:20 | 54.54272 | -3.20625 | 25449 ft | 424 kts | 156° |
| 2026-04-23 16:20 | 54.51561 | -3.18602 | 25439 ft | 423 kts | 156° |
| 2026-04-23 16:20 | 54.48858 | -3.16589 | 25441 ft | 424 kts | 156° |
| 2026-04-23 16:21 | 54.46153 | -3.14577 | 25439 ft | 423 kts | 156° |
| 2026-04-23 16:21 | 54.43445 | -3.12566 | 25439 ft | 423 kts | 156° |
| 2026-04-23 16:21 | 54.40743 | -3.10562 | 25440 ft | 423 kts | 156° |
| 2026-04-23 16:21 | 54.38037 | -3.08557 | 25439 ft | 423 kts | 156° |
| 2026-04-23 16:22 | 54.35331 | -3.06558 | 25436 ft | 424 kts | 156° |
| 2026-04-23 16:22 | 54.32641 | -3.04573 | 25194 ft | 425 kts | 156° |
| 2026-04-23 16:22 | 54.29919 | -3.02564 | 24506 ft | 427 kts | 156° |
| 2026-04-23 16:22 | 54.27164 | -3.00534 | 23373 ft | 433 kts | 156° |
| 2026-04-23 16:23 | 54.24417 | -2.98447 | 22515 ft | 429 kts | 153° |
| 2026-04-23 16:23 | 54.21879 | -2.95900 | 21925 ft | 417 kts | 146° |
| 2026-04-23 16:23 | 54.19482 | -2.93194 | 21219 ft | 410 kts | 146° |
| 2026-04-23 16:23 | 54.17124 | -2.90531 | 20503 ft | 403 kts | 146° |
| 2026-04-23 16:24 | 54.14830 | -2.87948 | 19803 ft | 396 kts | 146° |
| 2026-04-23 16:24 | 54.12546 | -2.85383 | 19100 ft | 390 kts | 147° |
| 2026-04-23 16:24 | 54.10292 | -2.82858 | 18402 ft | 384 kts | 147° |
| 2026-04-23 16:24 | 54.08070 | -2.80374 | 17713 ft | 378 kts | 147° |
| 2026-04-23 16:25 | 54.05887 | -2.77935 | 17028 ft | 373 kts | 147° |
| 2026-04-23 16:25 | 54.03729 | -2.75527 | 16351 ft | 368 kts | 147° |
| 2026-04-23 16:25 | 54.01596 | -2.73151 | 15686 ft | 363 kts | 147° |
| 2026-04-23 16:25 | 53.99524 | -2.70845 | 15025 ft | 358 kts | 148° |
| 2026-04-23 16:26 | 53.97448 | -2.68536 | 14371 ft | 354 kts | 148° |
| 2026-04-23 16:26 | 53.95395 | -2.66258 | 13717 ft | 350 kts | 148° |
| 2026-04-23 16:26 | 53.93373 | -2.64019 | 13083 ft | 345 kts | 148° |
| 2026-04-23 16:26 | 53.91376 | -2.61809 | 12462 ft | 341 kts | 148° |
| 2026-04-23 16:27 | 53.89396 | -2.59619 | 11861 ft | 337 kts | 148° |
| 2026-04-23 16:27 | 53.87469 | -2.57490 | 11656 ft | 321 kts | 149° |
| 2026-04-23 16:27 | 53.85641 | -2.55472 | 11503 ft | 305 kts | 148° |
| 2026-04-23 16:27 | 53.83895 | -2.53543 | 11172 ft | 297 kts | 149° |
| 2026-04-23 16:28 | 53.82182 | -2.51660 | 10887 ft | 289 kts | 148° |
| 2026-04-23 16:28 | 53.80526 | -2.49844 | 10515 ft | 287 kts | 148° |
| 2026-04-23 16:28 | 53.78854 | -2.48011 | 10089 ft | 286 kts | 148° |
| 2026-04-23 16:28 | 53.77190 | -2.46188 | 9651 ft | 283 kts | 148° |
| 2026-04-23 16:29 | 53.75542 | -2.44396 | 9222 ft | 281 kts | 150° |
| 2026-04-23 16:29 | 53.73705 | -2.43367 | 8793 ft | 279 kts | 176° |
| 2026-04-23 16:29 | 53.71786 | -2.43824 | 8372 ft | 280 kts | 198° |
| 2026-04-23 16:29 | 53.69963 | -2.44943 | 7953 ft | 277 kts | 200° |
| 2026-04-23 16:30 | 53.68168 | -2.46064 | 7596 ft | 272 kts | 200° |
| 2026-04-23 16:30 | 53.66386 | -2.47182 | 7464 ft | 277 kts | 200° |
| 2026-04-23 16:30 | 53.64587 | -2.48311 | 7433 ft | 274 kts | 200° |
| 2026-04-23 16:30 | 53.62802 | -2.49432 | 7433 ft | 274 kts | 200° |
| 2026-04-23 16:31 | 53.61014 | -2.50555 | 7421 ft | 275 kts | 200° |
| 2026-04-23 16:31 | 53.59219 | -2.51685 | 7432 ft | 275 kts | 200° |
| 2026-04-23 16:31 | 53.57433 | -2.52813 | 7432 ft | 274 kts | 200° |
| 2026-04-23 16:31 | 53.55647 | -2.53946 | 7431 ft | 274 kts | 200° |
| 2026-04-23 16:32 | 53.53868 | -2.55073 | 7432 ft | 273 kts | 200° |
| 2026-04-23 16:32 | 53.52084 | -2.56204 | 7426 ft | 274 kts | 200° |
| 2026-04-23 16:32 | 53.50300 | -2.57335 | 7392 ft | 273 kts | 200° |
| 2026-04-23 16:32 | 53.48533 | -2.58455 | 7111 ft | 271 kts | 200° |
| 2026-04-23 16:33 | 53.46790 | -2.59564 | 6736 ft | 269 kts | 200° |
| 2026-04-23 16:33 | 53.45042 | -2.60686 | 6300 ft | 268 kts | 200° |
| 2026-04-23 16:33 | 53.43310 | -2.61808 | 5873 ft | 266 kts | 200° |
| 2026-04-23 16:33 | 53.41587 | -2.62930 | 5421 ft | 264 kts | 200° |
| 2026-04-23 16:34 | 53.39874 | -2.64052 | 4985 ft | 263 kts | 200° |
| 2026-04-23 16:34 | 53.38171 | -2.65172 | 4553 ft | 263 kts | 200° |
| 2026-04-23 16:34 | 53.36462 | -2.66281 | 4139 ft | 261 kts | 195° |
| 2026-04-23 16:34 | 53.34708 | -2.66504 | 3710 ft | 256 kts | 168° |
| 2026-04-23 16:35 | 53.33015 | -2.65650 | 3273 ft | 253 kts | 160° |
| 2026-04-23 16:35 | 53.31358 | -2.64735 | 3057 ft | 251 kts | 160° |
| 2026-04-23 16:35 | 53.29721 | -2.63839 | 3007 ft | 241 kts | 160° |
| 2026-04-23 16:35 | 53.28174 | -2.63006 | 2999 ft | 225 kts | 160° |
| 2026-04-23 16:36 | 53.26723 | -2.62235 | 3007 ft | 212 kts | 160° |
| 2026-04-23 16:36 | 53.25346 | -2.61510 | 2995 ft | 201 kts | 160° |
| 2026-04-23 16:36 | 53.24088 | -2.60696 | 2992 ft | 186 kts | 142° |
| 2026-04-23 16:36 | 53.23312 | -2.59114 | 2998 ft | 171 kts | 120° |
| 2026-04-23 16:37 | 53.22694 | -2.57391 | 2997 ft | 173 kts | 120° |
| 2026-04-23 16:37 | 53.22317 | -2.55538 | 3003 ft | 172 kts | 88° |
| 2026-04-23 16:37 | 53.22550 | -2.53602 | 2996 ft | 173 kts | 71° |
| 2026-04-23 16:37 | 53.23109 | -2.51820 | 3000 ft | 174 kts | 58° |
| 2026-04-23 16:38 | 53.23836 | -2.50194 | 2998 ft | 175 kts | 53° |
| 2026-04-23 16:38 | 53.24617 | -2.48617 | 2993 ft | 175 kts | 53° |
| 2026-04-23 16:38 | 53.25396 | -2.47021 | 2817 ft | 185 kts | 53° |
| 2026-04-23 16:38 | 53.26250 | -2.45269 | 2366 ft | 200 kts | 52° |
| 2026-04-23 16:39 | 53.27136 | -2.43460 | 2076 ft | 200 kts | 52° |
| 2026-04-23 16:39 | 53.27989 | -2.41717 | 1802 ft | 186 kts | 51° |
| 2026-04-23 16:39 | 53.28770 | -2.40118 | 1592 ft | 167 kts | 52° |
| 2026-04-23 16:39 | 53.29455 | -2.38714 | 1370 ft | 151 kts | 51° |
| 2026-04-23 16:40 | 53.30085 | -2.37423 | 1183 ft | 136 kts | 51° |
| 2026-04-23 16:40 | 53.30643 | -2.36276 | 1009 ft | 119 kts | 51° |
| 2026-04-23 16:40 | 53.31164 | -2.35207 | 846 ft | 118 kts | 51° |
| 2026-04-23 16:40 | 53.31679 | -2.34151 | 687 ft | 117 kts | 52° |
| 2026-04-23 16:41 | 53.32198 | -2.33091 | 544 ft | 118 kts | 51° |
| 2026-04-23 16:41 | 53.32735 | -2.32009 | 487 ft | 135 kts | 51° |
| 2026-04-23 16:41 | 53.33388 | -2.30682 | 1185 ft | 155 kts | 51° |
| 2026-04-23 16:41 | 53.34111 | -2.29221 | 2121 ft | 172 kts | 52° |
| 2026-04-23 16:42 | 53.34742 | -2.27531 | 2814 ft | 173 kts | 72° |
| 2026-04-23 16:42 | 53.34567 | -2.25608 | 3116 ft | 174 kts | 129° |
| 2026-04-23 16:42 | 53.33445 | -2.24946 | 3207 ft | 185 kts | 185° |
| 2026-04-23 16:42 | 53.32242 | -2.25628 | 3082 ft | 181 kts | 191° |
| 2026-04-23 16:43 | 53.31001 | -2.25962 | 2997 ft | 182 kts | 185° |
| 2026-04-23 16:43 | 53.29744 | -2.26254 | 2992 ft | 182 kts | 185° |
| 2026-04-23 16:43 | 53.28484 | -2.26547 | 2995 ft | 182 kts | 185° |
| 2026-04-23 16:43 | 53.27235 | -2.26835 | 3001 ft | 182 kts | 185° |
| 2026-04-23 16:44 | 53.25989 | -2.27126 | 2996 ft | 181 kts | 185° |
| 2026-04-23 16:44 | 53.24739 | -2.27423 | 3001 ft | 182 kts | 185° |
| 2026-04-23 16:44 | 53.23495 | -2.27718 | 3001 ft | 182 kts | 185° |
| 2026-04-23 16:44 | 53.22247 | -2.28020 | 2999 ft | 180 kts | 185° |
| 2026-04-23 16:45 | 53.21005 | -2.28323 | 3015 ft | 182 kts | 185° |
| 2026-04-23 16:45 | 53.19757 | -2.28622 | 2989 ft | 180 kts | 185° |
| 2026-04-23 16:45 | 53.18526 | -2.28919 | 3002 ft | 181 kts | 185° |
| 2026-04-23 16:45 | 53.17272 | -2.29218 | 3001 ft | 180 kts | 185° |
| 2026-04-23 16:46 | 53.16032 | -2.29518 | 2996 ft | 181 kts | 185° |
| 2026-04-23 16:46 | 53.14834 | -2.30148 | 2997 ft | 185 kts | 214° |
| 2026-04-23 16:46 | 53.13981 | -2.31787 | 2996 ft | 189 kts | 231° |
| 2026-04-23 16:46 | 53.13186 | -2.33524 | 3003 ft | 188 kts | 230° |
| 2026-04-23 16:47 | 53.12396 | -2.35241 | 3008 ft | 189 kts | 230° |
| 2026-04-23 16:47 | 53.11599 | -2.36974 | 2998 ft | 189 kts | 230° |
| 2026-04-23 16:47 | 53.10798 | -2.38717 | 2997 ft | 189 kts | 230° |
| 2026-04-23 16:47 | 53.10238 | -2.40679 | 2995 ft | 192 kts | 263° |
| 2026-04-23 16:48 | 53.10513 | -2.42824 | 3005 ft | 193 kts | 304° |
| 2026-04-23 16:48 | 53.11415 | -2.44438 | 2999 ft | 191 kts | 320° |
| 2026-04-23 16:48 | 53.12397 | -2.45929 | 2996 ft | 191 kts | 320° |
| 2026-04-23 16:48 | 53.13377 | -2.47409 | 3011 ft | 191 kts | 320° |
| 2026-04-23 16:49 | 53.14027 | -2.48387 | 2998 ft | 189 kts | 320° |
| 2026-04-23 16:49 | 53.15341 | -2.50369 | 2997 ft | 191 kts | 320° |
| 2026-04-23 16:49 | 53.16319 | -2.51848 | 3002 ft | 191 kts | 320° |
| 2026-04-23 16:49 | 53.17302 | -2.53337 | 2997 ft | 189 kts | 320° |
| 2026-04-23 16:50 | 53.18287 | -2.54820 | 3002 ft | 190 kts | 320° |
| 2026-04-23 16:50 | 53.19360 | -2.55996 | 2996 ft | 185 kts | 349° |
| 2026-04-23 16:50 | 53.20600 | -2.55838 | 3001 ft | 179 kts | 29° |
| 2026-04-23 16:50 | 53.21599 | -2.54638 | 3007 ft | 176 kts | 47° |
| 2026-04-23 16:51 | 53.22407 | -2.53155 | 2998 ft | 173 kts | 54° |
| 2026-04-23 16:51 | 53.23170 | -2.51563 | 3000 ft | 174 kts | 54° |
| 2026-04-23 16:51 | 53.23907 | -2.50063 | 2982 ft | 164 kts | 53° |
| 2026-04-23 16:51 | 53.24627 | -2.48592 | 2827 ft | 164 kts | 53° |
| 2026-04-23 16:52 | 53.25357 | -2.47098 | 2616 ft | 168 kts | 53° |
| 2026-04-23 16:52 | 53.26104 | -2.45561 | 2384 ft | 172 kts | 53° |
| 2026-04-23 16:52 | 53.26866 | -2.44015 | 2157 ft | 171 kts | 52° |
| 2026-04-23 16:52 | 53.27580 | -2.42553 | 1944 ft | 154 kts | 52° |
| 2026-04-23 16:53 | 53.28227 | -2.41234 | 1740 ft | 140 kts | 52° |
| 2026-04-23 16:53 | 53.28816 | -2.40026 | 1558 ft | 128 kts | 52° |
| 2026-04-23 16:53 | 53.29392 | -2.38844 | 1740 ft | 139 kts | 52° |
| 2026-04-23 16:53 | 53.30096 | -2.37407 | 1424 ft | 175 kts | 52° |
| 2026-04-23 16:54 | 53.30861 | -2.35839 | 1106 ft | 160 kts | 51° |
| 2026-04-23 16:54 | 53.31518 | -2.34530 | 779 ft | 138 kts | 51° |
| 2026-04-23 16:54 | 53.32078 | -2.33361 | 572 ft | 122 kts | 51° |
| 2026-04-23 16:54 | 53.32594 | -2.32305 | 414 ft | 119 kts | 51° |
| 2026-04-23 16:55 | 53.33112 | -2.31243 | 307 ft | 117 kts | 51° |
| 2026-04-23 16:55 | 53.33620 | -2.30187 | 236 ft | 110 kts | 51° |
| 2026-04-23 16:55 | 53.34030 | -2.29343 | 230 ft | 67 kts | 51° |
| 2026-04-23 16:55 | 53.34257 | -2.28878 | 228 ft | 48 kts | 51° |
| 2026-04-23 16:56 | 53.34417 | -2.28608 | 226 ft | 15 kts | 31° |
| 2026-04-23 16:56 | 53.34495 | -2.28544 | 227 ft | 10 kts | 23° |
| 2026-04-23 16:56 | 53.34514 | -2.28530 | 227 ft | 2 kts | 24° |
| 2026-04-23 16:56 | 53.34547 | -2.28508 | 227 ft | 9 kts | 22° |
| 2026-04-23 16:57 | 53.34628 | -2.28454 | 230 ft | 15 kts | 22° |
| 2026-04-23 16:57 | 53.34727 | -2.28368 | 229 ft | 19 kts | 41° |
| 2026-04-23 16:57 | 53.34818 | -2.28180 | 232 ft | 20 kts | 52° |
| 2026-04-23 16:57 | 53.34920 | -2.27968 | 230 ft | 24 kts | 51° |
| 2026-04-23 16:58 | 53.35014 | -2.27778 | 230 ft | 24 kts | 51° |
| 2026-04-23 16:58 | 53.35122 | -2.27554 | 235 ft | 26 kts | 51° |
| 2026-04-23 16:58 | 53.35208 | -2.27377 | 238 ft | 18 kts | 52° |
| 2026-04-23 16:58 | 53.35266 | -2.27253 | 239 ft | 9 kts | 52° |
| 2026-04-23 16:59 | 53.35327 | -2.27193 | 243 ft | 11 kts | 9° |
| 2026-04-23 16:59 | 53.35409 | -2.27236 | 246 ft | 15 kts | 321° |
| 2026-04-23 16:59 | 53.35503 | -2.27366 | 248 ft | 20 kts | 322° |
| 2026-04-23 16:59 | 53.35607 | -2.27503 | 245 ft | 15 kts | 323° |
| 2026-04-23 17:00 | 53.35656 | -2.27571 | 246 ft | 5 kts | 321° |
| 2026-04-23 17:00 | 53.35666 | -2.27585 | 246 ft | 2 kts | 321° |
| 2026-04-23 17:00 | 53.35700 | -2.27619 | 247 ft | 8 kts | 337° |
| 2026-04-23 17:00 | 53.35747 | -2.27650 | 249 ft | 6 kts | 339° |
| 2026-04-23 17:01 | 53.35793 | -2.27694 | 251 ft | 13 kts | 315° |
| 2026-04-23 17:01 | 53.35840 | -2.27733 | 253 ft | 11 kts | 358° |
| 2026-04-23 17:01 | 53.35906 | -2.27726 | 255 ft | 9 kts | 2° |
| 2026-04-23 17:01 | 53.35984 | -2.27749 | 255 ft | 15 kts | 330° |
| 2026-04-23 17:02 | 53.36074 | -2.27865 | 255 ft | 16 kts | 321° |
| 2026-04-23 17:02 | 53.36164 | -2.27983 | 255 ft | 16 kts | 321° |
| 2026-04-23 17:02 | 53.36244 | -2.28114 | 255 ft | 16 kts | 315° |
| 2026-04-23 17:02 | 53.36324 | -2.28248 | 255 ft | 16 kts | 314° |
| 2026-04-23 17:03 | 53.36396 | -2.28384 | 255 ft | 14 kts | 297° |
| 2026-04-23 17:03 | 53.36445 | -2.28531 | 255 ft | 15 kts | 313° |
| 2026-04-23 17:03 | 53.36517 | -2.28652 | 255 ft | 15 kts | 315° |
| 2026-04-23 17:03 | 53.36584 | -2.28763 | 255 ft | 9 kts | 320° |
| 2026-04-23 17:04 | 53.36635 | -2.28773 | 255 ft | 6 kts | 24° |
| 2026-04-23 17:04 | 53.36668 | -2.28782 | 255 ft | 4 kts | 324° |
| 2026-04-23 17:04 | 53.36691 | -2.28822 | 255 ft | 5 kts | 313° |
| 2026-04-23 17:04 | 53.36705 | -2.28845 | 255 ft | 2 kts | 315° |
| 2026-04-23 17:05 | 53.36706 | -2.28847 | 255 ft | 0 kts | 315° |